createdAt,value
2022-08-12T07:58:26.273Z,2.60
2022-08-12T08:03:25.898Z,3.10
2022-08-12T08:18:26.339Z,3.03
2022-08-12T08:23:56.195Z,2.65
2022-08-12T08:28:55.385Z,2.70
2022-08-12T08:34:09.762Z,2.35
2022-08-12T08:39:14.662Z,2.65
2022-08-12T08:44:12.838Z,2.45
2022-08-12T08:49:10.684Z,2.33
2022-08-12T08:54:12.209Z,2.00
2022-08-12T08:59:12.501Z,2.08
2022-08-12T09:05:09.528Z,2.50
2022-08-12T09:10:01.536Z,2.20
2022-08-12T09:14:51.225Z,2.10
2022-08-12T09:19:55.208Z,2.38
2022-08-12T09:24:55.431Z,2.38
2022-08-12T09:30:10.146Z,1.90
2022-08-12T09:35:21.827Z,2.33
2022-08-12T09:40:57.711Z,2.25
2022-08-12T09:46:20.220Z,2.53
2022-08-12T09:51:10.696Z,2.25
2022-08-12T09:56:57.139Z,2.47
2022-08-12T10:01:35.193Z,26.35
2022-08-12T10:06:55.698Z,3.38
2022-08-12T10:12:13.317Z,2.10
2022-08-12T10:17:12.695Z,2.60
2022-08-12T10:22:17.049Z,2.45
2022-08-12T10:28:04.967Z,2.63
2022-08-12T10:33:19.086Z,2.70
2022-08-12T10:38:33.695Z,1.92
2022-08-12T10:43:55.610Z,2.40
2022-08-12T10:48:58.447Z,2.05
2022-08-12T10:54:05.171Z,2.25
2022-08-12T10:59:05.284Z,1.80
2022-08-12T11:04:35.477Z,9.43
2022-08-12T11:09:56.469Z,2.60
2022-08-12T11:14:49.075Z,2.17
2022-08-12T11:19:50.509Z,2.20
2022-08-12T11:24:51.081Z,2.35
2022-08-12T11:30:02.407Z,2.10
2022-08-12T11:35:07.077Z,2.00
2022-08-12T11:40:05.874Z,1.90
2022-08-12T11:45:04.072Z,2.13
2022-08-12T11:50:03.018Z,2.35
2022-08-12T11:55:02.297Z,2.40
2022-08-12T12:05:18.109Z,1.83
2022-08-12T12:10:19.775Z,1.90
2022-08-12T12:15:25.456Z,2.35
2022-08-12T12:20:35.660Z,2.30
2022-08-12T12:25:59.635Z,1.90
2022-08-12T12:30:54.925Z,1.80
2022-08-12T12:36:17.068Z,1.98
2022-08-12T12:41:14.482Z,2.72
2022-08-12T12:46:14.862Z,1.90
2022-08-12T12:51:49.344Z,1.67
2022-08-12T13:01:41.765Z,2.55
2022-08-12T13:06:42.084Z,2.25
2022-08-12T13:11:42.247Z,2.13
2022-08-12T13:16:44.673Z,2.25
2022-08-12T13:22:02.510Z,2.05
2022-08-12T13:27:01.672Z,2.20
2022-08-12T13:32:19.169Z,2.65
2022-08-12T13:37:22.536Z,3.20
2022-08-12T13:42:22.886Z,2.97
2022-08-12T13:47:23.521Z,2.95
2022-08-12T13:52:21.363Z,2.90
2022-08-12T13:57:20.545Z,3.00
2022-08-12T14:02:22.652Z,2.15
2022-08-12T14:07:22.764Z,2.40
2022-08-12T14:12:20.644Z,2.72
2022-08-12T14:17:22.671Z,2.05
2022-08-12T14:22:30.284Z,3.72
2022-08-12T14:28:02.536Z,2.70
2022-08-12T14:32:47.527Z,2.75
2022-08-12T14:37:56.541Z,2.60
2022-08-12T14:42:57.017Z,3.10
2022-08-12T14:47:58.644Z,3.00
2022-08-12T14:58:15.895Z,3.20
2022-08-12T15:03:14.520Z,2.80
2022-08-12T15:08:22.471Z,3.08
2022-08-12T15:13:22.541Z,2.53
2022-08-12T15:18:22.692Z,2.80
2022-08-12T15:23:23.230Z,3.60
2022-08-12T15:28:22.355Z,2.40
2022-08-12T15:33:24.305Z,2.95
2022-08-12T15:38:25.081Z,3.63
2022-08-12T15:43:51.976Z,2.60
2022-08-12T15:48:43.446Z,2.60
2022-08-12T15:54:00.280Z,3.10
2022-08-12T15:58:58.992Z,3.53
2022-08-12T16:04:00.013Z,4.32
2022-08-12T16:09:00.142Z,15.45
2022-08-12T16:14:00.417Z,4.20
2022-08-12T16:19:04.504Z,5.05
2022-08-12T16:24:18.767Z,5.38
2022-08-12T16:29:18.377Z,5.53
2022-08-12T16:34:25.445Z,5.53
2022-08-12T16:40:00.234Z,6.95
2022-08-12T16:44:55.063Z,8.43
2022-08-12T16:49:55.045Z,9.98
2022-08-12T16:54:55.223Z,8.57
2022-08-12T16:59:55.056Z,8.38
2022-08-12T17:04:53.274Z,10.23
2022-08-12T17:09:52.206Z,10.63
2022-08-12T17:14:53.005Z,9.65
2022-08-12T17:20:30.162Z,10.25
2022-08-12T17:25:18.392Z,10.25
2022-08-12T17:30:17.947Z,10.75
2022-08-12T17:35:36.915Z,10.95
2022-08-12T17:40:37.015Z,10.60
2022-08-12T17:45:37.119Z,10.52
2022-08-12T17:50:40.632Z,11.35
2022-08-12T17:55:47.883Z,10.88
2022-08-12T18:00:50.568Z,11.38
2022-08-12T18:05:59.815Z,11.52
2022-08-12T18:11:38.342Z,11.55
2022-08-12T18:22:01.735Z,11.20
2022-08-12T18:26:54.975Z,11.18
2022-08-12T18:31:58.827Z,11.13
2022-08-12T18:37:16.392Z,10.97
2022-08-12T18:42:19.423Z,12.75
2022-08-12T18:47:20.872Z,10.80
2022-08-12T18:52:20.105Z,10.23
2022-08-12T18:57:45.483Z,10.45
2022-08-12T19:02:40.541Z,10.43
